createdAt,value
2022-09-04T00:00:50.577Z,1001.27
2022-09-04T00:01:50.556Z,1001.28
2022-09-04T00:02:50.540Z,1001.28
2022-09-04T00:03:50.619Z,1001.29
2022-09-04T00:04:50.590Z,1001.28
2022-09-04T00:05:50.511Z,1001.29
2022-09-04T00:06:50.485Z,1001.30
2022-09-04T00:07:50.469Z,1001.30
2022-09-04T00:08:50.470Z,1001.32
2022-09-04T00:09:50.448Z,1001.35
2022-09-04T00:10:50.442Z,1001.38
2022-09-04T00:11:50.417Z,1001.35
2022-09-04T00:12:50.407Z,1001.39
2022-09-04T00:13:50.409Z,1001.40
2022-09-04T00:14:50.380Z,1001.37
2022-09-04T00:15:50.365Z,1001.39
2022-09-04T00:16:50.387Z,1001.37
2022-09-04T00:17:50.336Z,1001.40
2022-09-04T00:18:50.335Z,1001.38
2022-09-04T00:19:50.320Z,1001.44
2022-09-04T00:20:50.294Z,1001.41
2022-09-04T00:21:50.288Z,1001.39
2022-09-04T00:22:50.267Z,1001.39
2022-09-04T00:23:50.274Z,1001.39
2022-09-04T00:24:50.236Z,1001.38
2022-09-04T00:25:50.248Z,1001.41
2022-09-04T00:26:50.217Z,1001.41
2022-09-04T00:27:50.208Z,1001.45
2022-09-04T00:28:50.214Z,1001.42
2022-09-04T00:29:50.191Z,1001.43
2022-09-04T00:30:50.207Z,1001.46
2022-09-04T00:31:50.155Z,1001.47
2022-09-04T00:32:50.135Z,1001.47
2022-09-04T00:33:50.137Z,1001.50
2022-09-04T00:34:50.116Z,1001.50
2022-09-04T00:35:50.098Z,1001.47
2022-09-04T00:36:50.460Z,1001.48
2022-09-04T00:37:50.075Z,1001.48
2022-09-04T00:38:50.063Z,1001.49
2022-09-04T00:39:50.099Z,1001.48
2022-09-04T00:40:50.035Z,1001.45
2022-09-04T00:41:50.021Z,1001.44
2022-09-04T00:42:50.021Z,1001.46
2022-09-04T00:43:50.027Z,1001.48
2022-09-04T00:44:50.779Z,1001.49
2022-09-04T00:45:50.017Z,1001.49
2022-09-04T00:46:49.946Z,1001.51
2022-09-04T00:47:49.940Z,1001.53
2022-09-04T00:48:49.936Z,1001.48
2022-09-04T00:49:49.922Z,1001.48
2022-09-04T00:50:49.895Z,1001.49
2022-09-04T00:51:49.883Z,1001.51
2022-09-04T00:52:49.867Z,1001.54
2022-09-04T00:53:50.867Z,1001.51
2022-09-04T00:54:49.847Z,1001.51
2022-09-04T00:55:49.836Z,1001.48
2022-09-04T00:56:49.824Z,1001.50
2022-09-04T00:57:49.806Z,1001.53
2022-09-04T00:58:49.798Z,1001.53
2022-09-04T00:59:49.778Z,1001.56
2022-09-04T01:00:49.798Z,1001.58
2022-09-04T01:01:49.853Z,1001.53
2022-09-04T01:02:49.730Z,1001.56
2022-09-04T01:03:49.736Z,1001.55
2022-09-04T01:04:49.712Z,1001.59
2022-09-04T01:05:49.705Z,1001.60
2022-09-04T01:06:49.690Z,1001.60
2022-09-04T01:07:49.668Z,1001.67
2022-09-04T01:08:49.677Z,1001.62
2022-09-04T01:09:50.649Z,1001.61
2022-09-04T01:10:49.632Z,1001.71
2022-09-04T01:11:49.624Z,1001.70
2022-09-04T01:12:49.596Z,1001.70
2022-09-04T01:13:49.608Z,1001.74
2022-09-04T01:14:52.057Z,1001.73
2022-09-04T01:15:49.568Z,1001.70
2022-09-04T01:16:49.599Z,1001.70
2022-09-04T01:17:49.537Z,1001.73
2022-09-04T01:18:49.528Z,1001.73
2022-09-04T01:19:49.509Z,1001.70
2022-09-04T01:20:49.494Z,1001.73
2022-09-04T01:21:49.486Z,1001.69
2022-09-04T01:22:49.476Z,1001.73
2022-09-04T01:23:49.495Z,1001.70
2022-09-04T01:24:49.437Z,1001.73
2022-09-04T01:25:49.430Z,1001.73
2022-09-04T01:26:49.417Z,1001.69
2022-09-04T01:27:49.406Z,1001.74
2022-09-04T01:28:49.407Z,1001.72
2022-09-04T01:29:49.392Z,1001.77
2022-09-04T01:30:49.367Z,1001.75
2022-09-04T01:31:49.396Z,1001.75
2022-09-04T01:32:49.337Z,1001.75
2022-09-04T01:33:49.339Z,1001.77
2022-09-04T01:34:49.311Z,1001.75
2022-09-04T01:35:49.298Z,1001.76
2022-09-04T01:36:49.283Z,1001.77
2022-09-04T01:37:49.267Z,1001.75
2022-09-04T01:38:49.268Z,1001.76
2022-09-04T01:39:49.295Z,1001.78
2022-09-04T01:40:49.227Z,1001.78
2022-09-04T01:41:49.221Z,1001.76
2022-09-04T01:42:49.205Z,1001.75
2022-09-04T01:43:49.199Z,1001.80
2022-09-04T01:44:49.179Z,1001.81
2022-09-04T01:45:49.219Z,1001.76
2022-09-04T01:46:49.148Z,1001.76
2022-09-04T01:47:49.143Z,1001.76
2022-09-04T01:48:49.128Z,1001.75
2022-09-04T01:49:49.110Z,1001.80
2022-09-04T01:50:49.127Z,1001.80
2022-09-04T01:51:49.080Z,1001.82
2022-09-04T01:52:49.068Z,1001.83
2022-09-04T01:53:49.219Z,1001.80
2022-09-04T01:54:49.042Z,1001.79
2022-09-04T01:55:49.039Z,1001.84
2022-09-04T01:56:49.127Z,1001.89
2022-09-04T01:57:49.008Z,1001.86
2022-09-04T01:58:48.997Z,1001.86
2022-09-04T01:59:53.421Z,1001.88
2022-09-04T02:00:49.055Z,1001.89
2022-09-04T02:01:48.985Z,1001.88
2022-09-04T02:02:50.413Z,1001.88
2022-09-04T02:03:48.938Z,1001.87
2022-09-04T02:04:48.916Z,1001.92
2022-09-04T02:05:48.900Z,1001.92
2022-09-04T02:06:48.878Z,1001.91
2022-09-04T02:07:48.880Z,1001.93
2022-09-04T02:08:48.849Z,1001.95
2022-09-04T02:09:48.849Z,1001.95
2022-09-04T02:10:49.832Z,1001.96
2022-09-04T02:11:48.818Z,1002.00
2022-09-04T02:12:49.117Z,1002.00
2022-09-04T02:13:48.792Z,1001.96
2022-09-04T02:14:48.779Z,1001.99
2022-09-04T02:15:48.938Z,1001.95
2022-09-04T02:16:48.769Z,1001.98
2022-09-04T02:17:48.747Z,1001.98
2022-09-04T02:18:48.734Z,1001.97
2022-09-04T02:19:48.719Z,1001.98
2022-09-04T02:20:48.696Z,1001.94
2022-09-04T02:21:48.691Z,1001.95
2022-09-04T02:22:48.677Z,1001.98
2022-09-04T02:23:48.665Z,1001.97
2022-09-04T02:24:48.643Z,1001.96
2022-09-04T02:25:48.641Z,1001.96
2022-09-04T02:26:48.608Z,1002.00
2022-09-04T02:27:48.620Z,1001.96
2022-09-04T02:28:48.588Z,1001.99
2022-09-04T02:29:48.589Z,1001.97
2022-09-04T02:30:54.169Z,1001.97
2022-09-04T02:31:49.593Z,1001.98
2022-09-04T02:32:48.549Z,1001.98
2022-09-04T02:33:48.520Z,1001.96
2022-09-04T02:34:48.509Z,1001.95
2022-09-04T02:35:48.497Z,1002.00
2022-09-04T02:36:50.178Z,1001.97
2022-09-04T02:37:48.477Z,1001.98
2022-09-04T02:38:48.460Z,1002.02
2022-09-04T02:39:48.482Z,1002.00
2022-09-04T02:40:48.439Z,1002.05
2022-09-04T02:41:48.428Z,1002.04
2022-09-04T02:42:48.420Z,1001.99
2022-09-04T02:43:48.390Z,1002.06
2022-09-04T02:44:48.387Z,1002.05
2022-09-04T02:45:48.381Z,1002.05
2022-09-04T02:46:48.406Z,1002.02
2022-09-04T02:47:48.371Z,1002.03
2022-09-04T02:48:48.325Z,1002.03
2022-09-04T02:49:48.316Z,1002.03
2022-09-04T02:50:48.299Z,1002.07
2022-09-04T02:51:48.292Z,1002.09
2022-09-04T02:52:48.633Z,1002.09
2022-09-04T02:53:48.259Z,1002.13
2022-09-04T02:54:48.257Z,1002.17
2022-09-04T02:55:48.237Z,1002.19
2022-09-04T02:56:48.229Z,1002.16
2022-09-04T02:57:48.218Z,1002.17
2022-09-04T02:58:48.200Z,1002.19
2022-09-04T02:59:48.176Z,1002.18
2022-09-04T03:00:48.212Z,1002.20
2022-09-04T03:01:50.032Z,1002.20
2022-09-04T03:02:48.149Z,1002.25
2022-09-04T03:03:48.128Z,1002.19
2022-09-04T03:04:48.117Z,1002.18
2022-09-04T03:05:48.115Z,1002.16
2022-09-04T03:06:48.104Z,1002.16
2022-09-04T03:07:48.080Z,1002.16
2022-09-04T03:08:48.057Z,1002.19
2022-09-04T03:09:48.051Z,1002.15
2022-09-04T03:10:48.029Z,1002.22
2022-09-04T03:11:48.029Z,1002.19
2022-09-04T03:12:48.021Z,1002.22
2022-09-04T03:13:47.986Z,1002.23
2022-09-04T03:14:47.989Z,1002.19
2022-09-04T03:15:48.037Z,1002.22
2022-09-04T03:16:47.948Z,1002.18
2022-09-04T03:17:47.950Z,1002.20
2022-09-04T03:18:47.940Z,1002.14
2022-09-04T03:19:47.919Z,1002.21
2022-09-04T03:20:47.906Z,1002.18
2022-09-04T03:21:47.887Z,1002.14
2022-09-04T03:22:48.457Z,1002.19
2022-09-04T03:23:47.860Z,1002.19
2022-09-04T03:24:47.847Z,1002.18
2022-09-04T03:25:47.840Z,1002.21
2022-09-04T03:26:47.818Z,1002.20
2022-09-04T03:27:47.819Z,1002.22
2022-09-04T03:28:47.788Z,1002.23
2022-09-04T03:29:47.779Z,1002.21
2022-09-04T03:30:47.767Z,1002.23
2022-09-04T03:31:47.799Z,1002.24
2022-09-04T03:32:47.751Z,1002.20
2022-09-04T03:33:47.730Z,1002.21
2022-09-04T03:34:47.708Z,1002.21
2022-09-04T03:35:47.698Z,1002.23
2022-09-04T03:36:47.687Z,1002.29
2022-09-04T03:37:47.687Z,1002.22
2022-09-04T03:38:47.657Z,1002.26
2022-09-04T03:39:47.683Z,1002.23
2022-09-04T03:40:47.631Z,1002.28
2022-09-04T03:41:47.628Z,1002.28
2022-09-04T03:42:47.612Z,1002.27
2022-09-04T03:43:47.587Z,1002.28
2022-09-04T03:44:47.578Z,1002.29
2022-09-04T03:45:47.576Z,1002.29
2022-09-04T03:46:47.667Z,1002.28
2022-09-04T03:47:47.545Z,1002.29
2022-09-04T03:48:47.527Z,1002.29
2022-09-04T03:49:47.509Z,1002.30
2022-09-04T03:50:47.498Z,1002.27
2022-09-04T03:51:47.490Z,1002.34
2022-09-04T03:52:47.488Z,1002.32
2022-09-04T03:53:47.459Z,1002.34
2022-09-04T03:54:47.447Z,1002.36
2022-09-04T03:55:47.427Z,1002.33
2022-09-04T03:56:47.417Z,1002.35
2022-09-04T03:57:47.419Z,1002.36
2022-09-04T03:58:47.398Z,1002.34
2022-09-04T03:59:47.379Z,1002.33
2022-09-04T04:00:47.436Z,1002.34
2022-09-04T04:01:47.383Z,1002.37
2022-09-04T04:02:47.447Z,1002.35
2022-09-04T04:03:47.326Z,1002.31
2022-09-04T04:04:47.319Z,1002.36
2022-09-04T04:05:48.251Z,1002.40
2022-09-04T04:06:47.290Z,1002.42
2022-09-04T04:07:47.287Z,1002.43
2022-09-04T04:08:47.267Z,1002.45
2022-09-04T04:09:47.246Z,1002.46
2022-09-04T04:10:47.229Z,1002.44
2022-09-04T04:11:47.218Z,1002.44
2022-09-04T04:12:47.226Z,1002.42
2022-09-04T04:13:47.191Z,1002.41
2022-09-04T04:14:47.187Z,1002.43
2022-09-04T04:15:47.197Z,1002.45
2022-09-04T04:16:48.006Z,1002.42
2022-09-04T04:17:48.151Z,1002.43
2022-09-04T04:18:47.129Z,1002.43
2022-09-04T04:19:47.129Z,1002.44
2022-09-04T04:20:47.099Z,1002.39
2022-09-04T04:21:47.092Z,1002.45
2022-09-04T04:22:47.101Z,1002.41
2022-09-04T04:23:47.361Z,1002.49
2022-09-04T04:24:47.046Z,1002.54
2022-09-04T04:25:47.035Z,1002.52
2022-09-04T04:26:50.634Z,1002.50
2022-09-04T04:27:48.817Z,1002.50
2022-09-04T04:28:46.998Z,1002.49
2022-09-04T04:29:46.978Z,1002.48
2022-09-04T04:30:46.978Z,1002.49
2022-09-04T04:31:47.027Z,1002.52
2022-09-04T04:32:46.947Z,1002.54
2022-09-04T04:33:46.926Z,1002.56
2022-09-04T04:34:46.917Z,1002.56
2022-09-04T04:35:46.899Z,1002.57
2022-09-04T04:36:46.888Z,1002.54
2022-09-04T04:37:47.081Z,1002.57
2022-09-04T04:38:46.858Z,1002.54
2022-09-04T04:39:46.893Z,1002.57
2022-09-04T04:40:46.838Z,1002.59
2022-09-04T04:41:46.818Z,1002.63
2022-09-04T04:42:46.828Z,1002.59
2022-09-04T04:43:46.794Z,1002.67
2022-09-04T04:44:46.777Z,1002.65
2022-09-04T04:45:46.782Z,1002.65
2022-09-04T04:46:46.793Z,1002.69
2022-09-04T04:47:46.758Z,1002.73
2022-09-04T04:48:46.725Z,1002.70
2022-09-04T04:49:46.715Z,1002.76
2022-09-04T04:50:46.709Z,1002.76
2022-09-04T04:51:46.695Z,1002.78
2022-09-04T04:52:46.691Z,1002.83
2022-09-04T04:53:46.859Z,1002.85
2022-09-04T04:54:46.654Z,1002.83
2022-09-04T04:55:46.670Z,1002.89
2022-09-04T04:56:46.628Z,1002.88
2022-09-04T04:57:46.617Z,1002.92
2022-09-04T04:58:46.597Z,1002.92
2022-09-04T04:59:46.815Z,1002.99
2022-09-04T05:00:46.582Z,1002.96
2022-09-04T05:01:46.650Z,1002.98
2022-09-04T05:02:47.153Z,1002.97
2022-09-04T05:03:46.531Z,1003.03
2022-09-04T05:04:46.527Z,1003.02
2022-09-04T05:05:47.009Z,1003.00
2022-09-04T05:06:46.487Z,1003.03
2022-09-04T05:07:46.498Z,1003.00
2022-09-04T05:08:46.468Z,1003.00
2022-09-04T05:09:46.450Z,1003.06
2022-09-04T05:10:46.440Z,1003.01
2022-09-04T05:11:46.429Z,1003.12
2022-09-04T05:12:46.416Z,1003.16
2022-09-04T05:13:46.389Z,1003.12
2022-09-04T05:14:46.396Z,1003.15
2022-09-04T05:16:07.516Z,1003.14
2022-09-04T05:16:50.027Z,1003.16
2022-09-04T05:17:47.819Z,1003.14
2022-09-04T05:18:46.327Z,1003.19
2022-09-04T05:19:46.310Z,1003.21
2022-09-04T05:20:46.583Z,1003.24
2022-09-04T05:21:46.295Z,1003.23
2022-09-04T05:22:46.295Z,1003.18
2022-09-04T05:23:46.450Z,1003.15
2022-09-04T05:24:46.247Z,1003.22
2022-09-04T05:25:46.239Z,1003.26
2022-09-04T05:26:46.224Z,1003.24
2022-09-04T05:27:46.220Z,1003.25
2022-09-04T05:28:46.207Z,1003.36
2022-09-04T05:29:47.159Z,1003.37
2022-09-04T05:30:46.213Z,1003.39
2022-09-04T05:31:46.149Z,1003.36
2022-09-04T05:32:46.151Z,1003.38
2022-09-04T05:33:46.129Z,1003.41
2022-09-04T05:34:46.131Z,1003.42
2022-09-04T05:35:46.098Z,1003.43
2022-09-04T05:36:46.100Z,1003.47
2022-09-04T05:37:46.130Z,1003.48
2022-09-04T05:38:46.060Z,1003.51
2022-09-04T05:39:46.072Z,1003.50
2022-09-04T05:40:46.040Z,1003.51
2022-09-04T05:41:46.021Z,1003.56
2022-09-04T05:42:46.028Z,1003.55
2022-09-04T05:43:45.990Z,1003.63
2022-09-04T05:44:45.982Z,1003.62
2022-09-04T05:45:45.971Z,1003.58
2022-09-04T05:46:46.001Z,1003.61
2022-09-04T05:47:46.969Z,1003.63
2022-09-04T05:48:45.929Z,1003.64
2022-09-04T05:49:45.930Z,1003.63
2022-09-04T05:50:45.901Z,1003.69
2022-09-04T05:51:46.081Z,1003.68
2022-09-04T05:52:45.889Z,1003.72
2022-09-04T05:53:45.869Z,1003.67
2022-09-04T05:54:45.933Z,1003.69
2022-09-04T05:55:45.832Z,1003.69
2022-09-04T05:56:45.831Z,1003.68
2022-09-04T05:57:46.226Z,1003.67
2022-09-04T05:58:45.804Z,1003.69
2022-09-04T05:59:45.780Z,1003.71
2022-09-04T06:00:45.811Z,1003.67
2022-09-04T06:01:48.635Z,1003.74
2022-09-04T06:02:46.773Z,1003.77
2022-09-04T06:03:45.914Z,1003.70
2022-09-04T06:04:45.720Z,1003.71
2022-09-04T06:05:45.723Z,1003.73
2022-09-04T06:06:45.693Z,1003.72
2022-09-04T06:07:45.682Z,1003.64
2022-09-04T06:08:45.663Z,1003.69
2022-09-04T06:09:45.680Z,1003.65
2022-09-04T06:10:45.642Z,1003.66
2022-09-04T06:11:45.646Z,1003.67
2022-09-04T06:12:45.611Z,1003.70
2022-09-04T06:13:45.595Z,1003.71
2022-09-04T06:14:45.583Z,1003.69
2022-09-04T06:15:45.599Z,1003.65
2022-09-04T06:16:45.573Z,1003.69
2022-09-04T06:17:45.543Z,1003.74
2022-09-04T06:18:45.536Z,1003.72
2022-09-04T06:19:45.551Z,1003.72
2022-09-04T06:20:45.515Z,1003.72
2022-09-04T06:21:45.509Z,1003.74
2022-09-04T06:22:48.573Z,1003.70
2022-09-04T06:23:45.474Z,1003.75
2022-09-04T06:24:45.452Z,1003.71
2022-09-04T06:25:45.445Z,1003.77
2022-09-04T06:26:45.433Z,1003.74
2022-09-04T06:27:45.411Z,1003.70
2022-09-04T06:28:45.400Z,1003.77
2022-09-04T06:29:45.387Z,1003.77
2022-09-04T06:30:45.372Z,1003.80
2022-09-04T06:31:45.372Z,1003.80
2022-09-04T06:32:45.352Z,1003.79
2022-09-04T06:33:45.335Z,1003.81
2022-09-04T06:34:45.322Z,1003.77
2022-09-04T06:35:52.321Z,1003.80
2022-09-04T06:36:45.311Z,1003.81
2022-09-04T06:37:45.271Z,1003.80
2022-09-04T06:38:45.261Z,1003.81
2022-09-04T06:39:45.288Z,1003.76
2022-09-04T06:40:45.234Z,1003.78
2022-09-04T06:41:45.235Z,1003.82
2022-09-04T06:42:45.213Z,1003.84
2022-09-04T06:43:45.192Z,1003.87
2022-09-04T06:44:45.192Z,1003.80
2022-09-04T06:45:45.181Z,1003.81
2022-09-04T06:46:45.248Z,1003.80
2022-09-04T06:47:45.151Z,1003.83
2022-09-04T06:48:45.133Z,1003.86
2022-09-04T06:49:45.131Z,1003.87
2022-09-04T06:50:45.114Z,1003.90
2022-09-04T06:51:45.113Z,1003.90
2022-09-04T06:52:45.083Z,1003.93
2022-09-04T06:53:45.063Z,1003.93
2022-09-04T06:54:45.053Z,1003.92
2022-09-04T06:55:45.046Z,1003.95
2022-09-04T06:56:45.050Z,1004.02
2022-09-04T06:57:45.020Z,1004.01
2022-09-04T06:58:45.007Z,1003.96
2022-09-04T06:59:44.987Z,1003.93
2022-09-04T07:00:44.982Z,1003.95
2022-09-04T07:01:45.057Z,1004.02
2022-09-04T07:02:45.086Z,1003.94
2022-09-04T07:03:44.938Z,1003.98
2022-09-04T07:04:44.925Z,1004.04
2022-09-04T07:05:44.916Z,1004.02
2022-09-04T07:06:44.907Z,1003.98
2022-09-04T07:07:44.881Z,1004.04
2022-09-04T07:08:44.895Z,1004.03
2022-09-04T07:09:44.870Z,1004.06
2022-09-04T07:10:44.884Z,1004.07
2022-09-04T07:11:44.837Z,1004.08
2022-09-04T07:12:44.859Z,1004.08
2022-09-04T07:13:44.808Z,1004.07
2022-09-04T07:14:44.807Z,1004.09
2022-09-04T07:15:44.862Z,1004.03
2022-09-04T07:16:44.780Z,1004.04
2022-09-04T07:17:44.756Z,1004.03
2022-09-04T07:18:44.757Z,1004.04
2022-09-04T07:19:44.766Z,1004.06
2022-09-04T07:20:44.737Z,1004.04
2022-09-04T07:21:44.709Z,1004.02
2022-09-04T07:22:44.739Z,1004.06
2022-09-04T07:23:44.699Z,1004.02
2022-09-04T07:24:44.678Z,1004.06
2022-09-04T07:25:44.679Z,1003.99
2022-09-04T07:26:44.655Z,1004.03
2022-09-04T07:27:44.644Z,1004.04
2022-09-04T07:28:44.640Z,1004.08
2022-09-04T07:29:44.611Z,1004.03
2022-09-04T07:30:44.609Z,1004.00
2022-09-04T07:31:44.613Z,1004.04
2022-09-04T07:32:44.579Z,1003.99
2022-09-04T07:33:44.561Z,1004.00
2022-09-04T07:34:44.550Z,1004.01
2022-09-04T07:35:44.550Z,1004.01
2022-09-04T07:36:44.513Z,1003.99
2022-09-04T07:37:44.494Z,1004.05
2022-09-04T07:38:44.495Z,1004.00
2022-09-04T07:39:45.536Z,1003.97
2022-09-04T07:40:44.476Z,1004.00
2022-09-04T07:41:44.486Z,1004.02
2022-09-04T07:42:44.435Z,1004.04
2022-09-04T07:43:44.433Z,1004.02
2022-09-04T07:44:44.414Z,1004.04
2022-09-04T07:45:44.422Z,1004.04
2022-09-04T07:46:44.440Z,1004.05
2022-09-04T07:47:44.374Z,1004.04
2022-09-04T07:48:44.363Z,1004.08
2022-09-04T07:49:44.365Z,1004.08
2022-09-04T07:50:44.362Z,1004.14
2022-09-04T07:51:44.388Z,1004.12
2022-09-04T07:52:44.335Z,1004.12
2022-09-04T07:53:44.308Z,1004.11
2022-09-04T07:54:44.284Z,1004.11
2022-09-04T07:55:44.286Z,1004.10
2022-09-04T07:56:44.265Z,1004.13
2022-09-04T07:57:44.268Z,1004.07
2022-09-04T07:58:44.236Z,1004.10
2022-09-04T07:59:44.246Z,1004.11
2022-09-04T08:00:44.228Z,1004.09
2022-09-04T08:01:44.306Z,1004.08
2022-09-04T08:02:44.198Z,1004.13
2022-09-04T08:03:53.697Z,1004.13
2022-09-04T08:04:45.195Z,1004.15
2022-09-04T08:05:44.168Z,1004.17
2022-09-04T08:06:44.127Z,1004.14
2022-09-04T08:07:44.133Z,1004.14
2022-09-04T08:08:44.110Z,1004.18
2022-09-04T08:09:44.097Z,1004.10
2022-09-04T08:10:44.119Z,1004.16
2022-09-04T08:11:44.088Z,1004.20
2022-09-04T08:12:44.083Z,1004.20
2022-09-04T08:13:44.135Z,1004.26
2022-09-04T08:14:44.039Z,1004.29
2022-09-04T08:15:44.099Z,1004.34
2022-09-04T08:16:44.015Z,1004.28
2022-09-04T08:17:44.003Z,1004.38
2022-09-04T08:18:43.989Z,1004.34
2022-09-04T08:19:43.990Z,1004.30
2022-09-04T08:20:43.982Z,1004.40
2022-09-04T08:21:43.950Z,1004.36
2022-09-04T08:22:43.935Z,1004.35
2022-09-04T08:23:43.925Z,1004.39
2022-09-04T08:24:43.902Z,1004.40
2022-09-04T08:25:43.916Z,1004.38
2022-09-04T08:26:43.881Z,1004.37
2022-09-04T08:27:44.375Z,1004.40
2022-09-04T08:28:46.294Z,1004.42
2022-09-04T08:29:43.871Z,1004.43
2022-09-04T08:30:43.921Z,1004.47
2022-09-04T08:31:43.838Z,1004.51
2022-09-04T08:32:43.815Z,1004.53
2022-09-04T08:33:43.814Z,1004.55
2022-09-04T08:34:43.783Z,1004.54
2022-09-04T08:35:43.796Z,1004.52
2022-09-04T08:36:43.763Z,1004.53
2022-09-04T08:37:43.760Z,1004.52
2022-09-04T08:38:43.744Z,1004.54
2022-09-04T08:39:43.834Z,1004.55
2022-09-04T08:40:43.735Z,1004.53
2022-09-04T08:41:43.708Z,1004.48
2022-09-04T08:42:43.689Z,1004.52
2022-09-04T08:43:43.675Z,1004.55
2022-09-04T08:44:43.661Z,1004.55
2022-09-04T08:45:43.657Z,1004.53
2022-09-04T08:46:43.690Z,1004.54
2022-09-04T08:47:43.627Z,1004.52
2022-09-04T08:48:43.616Z,1004.53
2022-09-04T08:49:43.596Z,1004.50
2022-09-04T08:50:43.599Z,1004.51
2022-09-04T08:51:43.576Z,1004.53
2022-09-04T08:52:43.572Z,1004.56
2022-09-04T08:53:43.558Z,1004.49
2022-09-04T08:54:43.530Z,1004.54
2022-09-04T08:55:43.536Z,1004.60
2022-09-04T08:56:43.510Z,1004.58
2022-09-04T08:57:43.499Z,1004.60
2022-09-04T08:58:47.672Z,1004.59
2022-09-04T08:59:43.489Z,1004.60
2022-09-04T09:00:43.481Z,1004.62
2022-09-04T09:01:43.486Z,1004.61
2022-09-04T09:02:43.476Z,1004.63
2022-09-04T09:03:43.445Z,1004.63
2022-09-04T09:04:43.400Z,1004.68
2022-09-04T09:05:43.421Z,1004.65
2022-09-04T09:06:43.382Z,1004.60
2022-09-04T09:07:43.375Z,1004.63
2022-09-04T09:08:43.353Z,1004.63
2022-09-04T09:09:43.353Z,1004.66
2022-09-04T09:10:43.342Z,1004.67
2022-09-04T09:11:43.334Z,1004.73
2022-09-04T09:12:43.313Z,1004.70
2022-09-04T09:13:43.311Z,1004.69
2022-09-04T09:14:43.293Z,1004.72
2022-09-04T09:15:43.285Z,1004.67
2022-09-04T09:16:43.348Z,1004.67
2022-09-04T09:17:43.243Z,1004.67
2022-09-04T09:18:43.246Z,1004.69
2022-09-04T09:19:43.222Z,1004.64
2022-09-04T09:20:43.213Z,1004.65
2022-09-04T09:21:43.194Z,1004.64
2022-09-04T09:22:43.182Z,1004.65
2022-09-04T09:23:43.161Z,1004.67
2022-09-04T09:24:43.151Z,1004.68
2022-09-04T09:25:44.064Z,1004.60
2022-09-04T09:26:43.137Z,1004.58
2022-09-04T09:27:43.106Z,1004.57
2022-09-04T09:28:43.099Z,1004.61
2022-09-04T09:29:43.087Z,1004.58
2022-09-04T09:30:43.141Z,1004.59
2022-09-04T09:31:43.110Z,1004.63
2022-09-04T09:32:43.055Z,1004.53
2022-09-04T09:33:43.040Z,1004.61
2022-09-04T09:34:43.057Z,1004.59
2022-09-04T09:35:43.017Z,1004.55
2022-09-04T09:36:42.994Z,1004.56
2022-09-04T09:37:42.990Z,1004.61
2022-09-04T09:38:42.971Z,1004.57
2022-09-04T09:39:43.054Z,1004.56
2022-09-04T09:40:42.960Z,1004.53
2022-09-04T09:41:42.939Z,1004.54
2022-09-04T09:42:42.929Z,1004.52
2022-09-04T09:43:42.929Z,1004.56
2022-09-04T09:44:42.927Z,1004.57
2022-09-04T09:45:42.936Z,1004.54
2022-09-04T09:46:42.871Z,1004.53
2022-09-04T09:47:42.854Z,1004.60
2022-09-04T09:48:42.841Z,1004.51
2022-09-04T09:49:42.851Z,1004.51
2022-09-04T09:50:42.819Z,1004.50
2022-09-04T09:51:42.803Z,1004.57
2022-09-04T09:52:42.789Z,1004.52
2022-09-04T09:53:46.859Z,1004.54
2022-09-04T09:54:42.781Z,1004.48
2022-09-04T09:55:42.770Z,1004.47
2022-09-04T09:56:42.741Z,1004.49
2022-09-04T09:57:43.729Z,1004.50
2022-09-04T09:58:42.712Z,1004.50
2022-09-04T09:59:42.723Z,1004.49
2022-09-04T10:00:42.683Z,1004.52
2022-09-04T10:01:42.758Z,1004.48
2022-09-04T10:02:42.708Z,1004.55
2022-09-04T10:03:42.675Z,1004.53
2022-09-04T10:04:42.641Z,1004.53
2022-09-04T10:05:42.629Z,1004.52
2022-09-04T10:06:42.612Z,1004.54
2022-09-04T10:07:42.611Z,1004.52
2022-09-04T10:08:42.600Z,1004.52
2022-09-04T10:09:42.586Z,1004.48
2022-09-04T10:10:42.563Z,1004.52
2022-09-04T10:11:42.568Z,1004.50
2022-09-04T10:12:42.534Z,1004.50
2022-09-04T10:13:42.534Z,1004.54
2022-09-04T10:14:42.549Z,1004.48
2022-09-04T10:15:42.514Z,1004.48
2022-09-04T10:16:42.532Z,1004.52
2022-09-04T10:17:42.484Z,1004.51
2022-09-04T10:18:42.513Z,1004.47
2022-09-04T10:19:42.455Z,1004.47
2022-09-04T10:20:42.445Z,1004.50
2022-09-04T10:21:42.437Z,1004.53
2022-09-04T10:22:42.408Z,1004.51
2022-09-04T10:23:42.414Z,1004.45
2022-09-04T10:24:42.384Z,1004.48
2022-09-04T10:25:42.375Z,1004.47
2022-09-04T10:26:42.440Z,1004.51
2022-09-04T10:27:44.115Z,1004.49
2022-09-04T10:28:42.365Z,1004.49
2022-09-04T10:29:42.336Z,1004.49
2022-09-04T10:30:42.360Z,1004.49
2022-09-04T10:31:42.305Z,1004.44
2022-09-04T10:32:42.313Z,1004.45
2022-09-04T10:33:42.293Z,1004.43
2022-09-04T10:34:42.305Z,1004.45
2022-09-04T10:35:42.246Z,1004.50
2022-09-04T10:36:42.235Z,1004.49
2022-09-04T10:37:42.234Z,1004.45
2022-09-04T10:38:42.228Z,1004.47
2022-09-04T10:39:42.250Z,1004.46
2022-09-04T10:40:44.575Z,1004.49
2022-09-04T10:41:42.175Z,1004.51
2022-09-04T10:42:42.157Z,1004.47
2022-09-04T10:43:42.160Z,1004.47
2022-09-04T10:44:42.126Z,1004.45
2022-09-04T10:45:42.157Z,1004.49
2022-09-04T10:46:42.099Z,1004.49
2022-09-04T10:47:42.089Z,1004.52
2022-09-04T10:48:42.081Z,1004.54
2022-09-04T10:49:42.070Z,1004.48
2022-09-04T10:50:42.051Z,1004.50
2022-09-04T10:51:42.052Z,1004.46
2022-09-04T10:52:42.022Z,1004.47
2022-09-04T10:53:42.028Z,1004.52
2022-09-04T10:54:42.001Z,1004.49
2022-09-04T10:55:41.993Z,1004.49
2022-09-04T10:56:41.974Z,1004.52
2022-09-04T10:57:41.962Z,1004.50
2022-09-04T10:58:41.972Z,1004.57
2022-09-04T10:59:41.941Z,1004.56
2022-09-04T11:00:41.940Z,1004.54
2022-09-04T11:01:41.912Z,1004.54
2022-09-04T11:02:41.914Z,1004.55
2022-09-04T11:03:41.891Z,1004.54
2022-09-04T11:04:41.893Z,1004.55
2022-09-04T11:05:41.863Z,1004.51
2022-09-04T11:06:41.845Z,1004.55
2022-09-04T11:07:41.849Z,1004.53
2022-09-04T11:08:41.823Z,1004.55
2022-09-04T11:09:41.819Z,1004.60
2022-09-04T11:10:41.803Z,1004.60
2022-09-04T11:11:41.791Z,1004.60
2022-09-04T11:12:41.767Z,1004.58
2022-09-04T11:13:41.775Z,1004.58
2022-09-04T11:14:41.751Z,1004.59
2022-09-04T11:15:41.731Z,1004.61
2022-09-04T11:16:41.785Z,1004.62
2022-09-04T11:17:41.709Z,1004.57
2022-09-04T11:18:41.695Z,1004.59
2022-09-04T11:19:41.686Z,1004.62
2022-09-04T11:20:41.664Z,1004.62
2022-09-04T11:21:41.666Z,1004.63
2022-09-04T11:22:41.636Z,1004.60
2022-09-04T11:23:41.635Z,1004.65
2022-09-04T11:24:41.616Z,1004.64
2022-09-04T11:25:41.606Z,1004.61
2022-09-04T11:26:41.585Z,1004.60
2022-09-04T11:27:41.585Z,1004.60
2022-09-04T11:28:41.585Z,1004.63
2022-09-04T11:29:41.556Z,1004.61
2022-09-04T11:30:47.944Z,1004.65
2022-09-04T11:31:42.611Z,1004.53
2022-09-04T11:32:41.515Z,1004.55
2022-09-04T11:33:41.515Z,1004.59
2022-09-04T11:34:41.496Z,1004.56
2022-09-04T11:35:41.486Z,1004.57
2022-09-04T11:36:41.458Z,1004.57
2022-09-04T11:37:41.455Z,1004.58
2022-09-04T11:38:41.449Z,1004.59
2022-09-04T11:39:41.469Z,1004.60
2022-09-04T11:40:41.408Z,1004.61
2022-09-04T11:41:41.397Z,1004.59
2022-09-04T11:42:41.435Z,1004.64
2022-09-04T11:43:41.388Z,1004.64
2022-09-04T11:44:41.358Z,1004.59
2022-09-04T11:45:41.484Z,1004.62
2022-09-04T11:46:41.329Z,1004.61
2022-09-04T11:47:41.329Z,1004.63
2022-09-04T11:48:41.318Z,1004.61
2022-09-04T11:49:41.298Z,1004.55
2022-09-04T11:50:41.288Z,1004.53
2022-09-04T11:51:41.270Z,1004.48
2022-09-04T11:52:41.259Z,1004.46
2022-09-04T11:53:41.259Z,1004.42
2022-09-04T11:54:41.228Z,1004.42
2022-09-04T11:55:41.220Z,1004.46
2022-09-04T11:56:41.202Z,1004.41
2022-09-04T11:57:41.203Z,1004.43
2022-09-04T11:58:41.190Z,1004.44
2022-09-04T11:59:41.171Z,1004.45
2022-09-04T12:00:41.153Z,1004.44
2022-09-04T12:01:45.698Z,1004.47
2022-09-04T12:02:42.120Z,1004.48
2022-09-04T12:03:41.197Z,1004.48
2022-09-04T12:04:41.121Z,1004.49
2022-09-04T12:05:41.091Z,1004.48